sensor_id;sensor_type;location;lat;lon;timestamp;P1;durP1;ratioP1;P2;durP2;ratioP2
20443;SDS011;10381;53.730;10.010;2022-09-09T00:00:25;223.20;;;142.27;;
20443;SDS011;10381;53.730;10.010;2022-09-09T00:13:28;201.77;;;141.13;;
20443;SDS011;10381;53.730;10.010;2022-09-09T00:17:37;220.35;;;142.35;;
20443;SDS011;10381;53.730;10.010;2022-09-09T00:21:47;248.43;;;139.75;;
20443;SDS011;10381;53.730;10.010;2022-09-09T00:26:04;223.93;;;140.43;;
20443;SDS011;10381;53.730;10.010;2022-09-09T00:30:15;221.98;;;138.43;;
20443;SDS011;10381;53.730;10.010;2022-09-09T00:34:35;217.50;;;138.07;;
20443;SDS011;10381;53.730;10.010;2022-09-09T00:38:40;212.45;;;131.07;;
20443;SDS011;10381;53.730;10.010;2022-09-09T00:42:45;276.83;;;142.35;;
20443;SDS011;10381;53.730;10.010;2022-09-09T00:51:34;305.65;;;150.57;;
20443;SDS011;10381;53.730;10.010;2022-09-09T00:56:16;265.63;;;150.07;;
20443;SDS011;10381;53.730;10.010;2022-09-09T01:00:25;298.40;;;152.63;;
20443;SDS011;10381;53.730;10.010;2022-09-09T01:04:32;385.98;;;170.60;;
20443;SDS011;10381;53.730;10.010;2022-09-09T01:13:11;262.98;;;156.23;;
20443;SDS011;10381;53.730;10.010;2022-09-09T01:17:17;380.42;;;183.05;;
20443;SDS011;10381;53.730;10.010;2022-09-09T01:30:19;569.25;;;213.60;;
20443;SDS011;10381;53.730;10.010;2022-09-09T01:34:21;536.53;;;197.77;;
20443;SDS011;10381;53.730;10.010;2022-09-09T01:38:23;530.22;;;190.73;;
20443;SDS011;10381;53.730;10.010;2022-09-09T01:42:25;569.22;;;208.65;;
20443;SDS011;10381;53.730;10.010;2022-09-09T01:46:25;560.17;;;205.05;;
20443;SDS011;10381;53.730;10.010;2022-09-09T01:50:27;475.67;;;188.55;;
20443;SDS011;10381;53.730;10.010;2022-09-09T01:54:29;519.15;;;187.57;;
20443;SDS011;10381;53.730;10.010;2022-09-09T02:03:20;346.15;;;156.18;;
20443;SDS011;10381;53.730;10.010;2022-09-09T02:07:31;330.45;;;161.40;;
20443;SDS011;10381;53.730;10.010;2022-09-09T02:11:37;484.67;;;188.23;;
20443;SDS011;10381;53.730;10.010;2022-09-09T02:19:52;437.63;;;182.82;;
20443;SDS011;10381;53.730;10.010;2022-09-09T02:23:59;428.65;;;164.18;;
20443;SDS011;10381;53.730;10.010;2022-09-09T02:28:05;571.40;;;199.18;;
20443;SDS011;10381;53.730;10.010;2022-09-09T02:32:14;438.55;;;175.98;;
20443;SDS011;10381;53.730;10.010;2022-09-09T02:36:17;450.27;;;178.27;;
20443;SDS011;10381;53.730;10.010;2022-09-09T02:40:20;248.65;;;149.15;;
20443;SDS011;10381;53.730;10.010;2022-09-09T02:44:21;442.17;;;177.15;;
20443;SDS011;10381;53.730;10.010;2022-09-09T02:57:12;282.05;;;155.52;;
20443;SDS011;10381;53.730;10.010;2022-09-09T03:01:17;224.80;;;150.75;;
20443;SDS011;10381;53.730;10.010;2022-09-09T03:05:17;227.77;;;155.25;;
20443;SDS011;10381;53.730;10.010;2022-09-09T03:09:17;295.40;;;166.77;;
20443;SDS011;10381;53.730;10.010;2022-09-09T03:13:18;244.03;;;157.03;;
20443;SDS011;10381;53.730;10.010;2022-09-09T03:17:19;292.63;;;166.95;;
20443;SDS011;10381;53.730;10.010;2022-09-09T03:21:19;265.30;;;156.93;;
20443;SDS011;10381;53.730;10.010;2022-09-09T03:25:20;332.60;;;163.53;;
20443;SDS011;10381;53.730;10.010;2022-09-09T03:29:21;347.45;;;170.07;;
20443;SDS011;10381;53.730;10.010;2022-09-09T03:33:21;353.52;;;177.02;;
20443;SDS011;10381;53.730;10.010;2022-09-09T03:37:21;362.37;;;176.07;;
20443;SDS011;10381;53.730;10.010;2022-09-09T03:41:22;321.27;;;173.25;;
20443;SDS011;10381;53.730;10.010;2022-09-09T03:45:23;286.60;;;165.65;;
20443;SDS011;10381;53.730;10.010;2022-09-09T03:49:24;279.23;;;165.20;;
20443;SDS011;10381;53.730;10.010;2022-09-09T03:53:26;317.05;;;173.30;;
20443;SDS011;10381;53.730;10.010;2022-09-09T03:57:26;272.42;;;159.93;;
20443;SDS011;10381;53.730;10.010;2022-09-09T04:01:27;289.65;;;167.90;;
20443;SDS011;10381;53.730;10.010;2022-09-09T04:05:27;227.27;;;157.95;;
20443;SDS011;10381;53.730;10.010;2022-09-09T04:09:28;248.73;;;156.70;;
20443;SDS011;10381;53.730;10.010;2022-09-09T04:13:28;272.42;;;160.60;;
20443;SDS011;10381;53.730;10.010;2022-09-09T04:17:28;213.30;;;150.27;;
20443;SDS011;10381;53.730;10.010;2022-09-09T04:21:29;252.68;;;143.52;;
20443;SDS011;10381;53.730;10.010;2022-09-09T04:25:29;248.93;;;153.25;;
20443;SDS011;10381;53.730;10.010;2022-09-09T04:29:30;241.45;;;151.55;;
20443;SDS011;10381;53.730;10.010;2022-09-09T04:33:30;204.13;;;142.07;;
20443;SDS011;10381;53.730;10.010;2022-09-09T04:37:31;209.20;;;156.30;;
20443;SDS011;10381;53.730;10.010;2022-09-09T04:41:31;236.37;;;158.13;;
20443;SDS011;10381;53.730;10.010;2022-09-09T04:45:32;222.07;;;156.63;;
20443;SDS011;10381;53.730;10.010;2022-09-09T04:49:33;232.57;;;154.82;;
20443;SDS011;10381;53.730;10.010;2022-09-09T04:53:33;210.45;;;160.95;;
20443;SDS011;10381;53.730;10.010;2022-09-09T04:57:34;241.55;;;167.77;;
20443;SDS011;10381;53.730;10.010;2022-09-09T05:01:34;233.50;;;159.03;;
20443;SDS011;10381;53.730;10.010;2022-09-09T05:05:34;216.83;;;167.67;;
20443;SDS011;10381;53.730;10.010;2022-09-09T05:09:35;218.40;;;168.75;;
20443;SDS011;10381;53.730;10.010;2022-09-09T05:13:35;236.13;;;178.67;;
20443;SDS011;10381;53.730;10.010;2022-09-09T05:17:35;231.57;;;172.77;;
20443;SDS011;10381;53.730;10.010;2022-09-09T05:21:36;217.33;;;178.60;;
20443;SDS011;10381;53.730;10.010;2022-09-09T05:25:36;226.80;;;177.02;;
20443;SDS011;10381;53.730;10.010;2022-09-09T05:29:37;230.80;;;176.10;;
20443;SDS011;10381;53.730;10.010;2022-09-09T05:33:38;207.75;;;173.13;;
20443;SDS011;10381;53.730;10.010;2022-09-09T05:37:42;216.25;;;172.05;;
20443;SDS011;10381;53.730;10.010;2022-09-09T05:41:44;203.52;;;166.88;;
20443;SDS011;10381;53.730;10.010;2022-09-09T05:45:44;194.73;;;159.73;;
20443;SDS011;10381;53.730;10.010;2022-09-09T05:49:47;187.15;;;159.80;;
20443;SDS011;10381;53.730;10.010;2022-09-09T05:53:47;186.20;;;159.03;;
20443;SDS011;10381;53.730;10.010;2022-09-09T05:57:48;200.55;;;163.02;;
20443;SDS011;10381;53.730;10.010;2022-09-09T06:01:49;181.40;;;161.85;;
20443;SDS011;10381;53.730;10.010;2022-09-09T06:05:56;185.68;;;165.43;;
20443;SDS011;10381;53.730;10.010;2022-09-09T06:09:57;182.15;;;161.57;;
20443;SDS011;10381;53.730;10.010;2022-09-09T06:13:59;178.00;;;159.18;;
20443;SDS011;10381;53.730;10.010;2022-09-09T06:18:00;190.13;;;170.10;;
20443;SDS011;10381;53.730;10.010;2022-09-09T06:22:00;196.10;;;175.97;;
20443;SDS011;10381;53.730;10.010;2022-09-09T06:26:08;185.80;;;166.47;;
20443;SDS011;10381;53.730;10.010;2022-09-09T06:30:10;200.35;;;180.10;;
20443;SDS011;10381;53.730;10.010;2022-09-09T06:34:11;202.13;;;181.05;;
20443;SDS011;10381;53.730;10.010;2022-09-09T06:38:11;189.97;;;170.03;;
20443;SDS011;10381;53.730;10.010;2022-09-09T06:42:12;181.05;;;162.75;;
20443;SDS011;10381;53.730;10.010;2022-09-09T06:50:16;176.80;;;158.40;;
20443;SDS011;10381;53.730;10.010;2022-09-09T06:54:16;174.27;;;155.93;;
20443;SDS011;10381;53.730;10.010;2022-09-09T06:58:16;173.00;;;155.30;;
20443;SDS011;10381;53.730;10.010;2022-09-09T07:02:17;176.73;;;159.07;;
20443;SDS011;10381;53.730;10.010;2022-09-09T07:06:21;155.90;;;139.40;;
20443;SDS011;10381;53.730;10.010;2022-09-09T07:10:26;134.95;;;120.63;;
20443;SDS011;10381;53.730;10.010;2022-09-09T07:14:26;91.80;;;80.30;;
20443;SDS011;10381;53.730;10.010;2022-09-09T07:18:27;83.80;;;70.63;;
20443;SDS011;10381;53.730;10.010;2022-09-09T07:22:27;79.20;;;66.03;;
20443;SDS011;10381;53.730;10.010;2022-09-09T07:26:29;82.82;;;59.00;;
20443;SDS011;10381;53.730;10.010;2022-09-09T07:30:30;68.28;;;58.17;;
20443;SDS011;10381;53.730;10.010;2022-09-09T07:34:30;70.33;;;59.83;;
20443;SDS011;10381;53.730;10.010;2022-09-09T07:38:31;52.37;;;42.70;;
20443;SDS011;10381;53.730;10.010;2022-09-09T07:42:31;42.97;;;36.67;;
20443;SDS011;10381;53.730;10.010;2022-09-09T07:46:31;47.73;;;39.20;;
20443;SDS011;10381;53.730;10.010;2022-09-09T07:50:32;38.42;;;34.30;;
20443;SDS011;10381;53.730;10.010;2022-09-09T07:54:32;38.67;;;34.67;;
20443;SDS011;10381;53.730;10.010;2022-09-09T07:58:33;41.78;;;32.47;;
20443;SDS011;10381;53.730;10.010;2022-09-09T08:02:33;32.53;;;29.15;;
20443;SDS011;10381;53.730;10.010;2022-09-09T08:06:38;23.17;;;20.83;;
20443;SDS011;10381;53.730;10.010;2022-09-09T08:10:39;19.40;;;17.50;;
20443;SDS011;10381;53.730;10.010;2022-09-09T08:14:39;17.67;;;15.93;;
20443;SDS011;10381;53.730;10.010;2022-09-09T08:18:40;20.58;;;16.10;;
20443;SDS011;10381;53.730;10.010;2022-09-09T08:22:41;18.15;;;16.23;;
20443;SDS011;10381;53.730;10.010;2022-09-09T08:26:44;22.38;;;20.05;;
20443;SDS011;10381;53.730;10.010;2022-09-09T08:30:47;23.30;;;20.95;;
20443;SDS011;10381;53.730;10.010;2022-09-09T08:34:47;19.17;;;17.48;;
20443;SDS011;10381;53.730;10.010;2022-09-09T08:38:50;22.00;;;15.88;;
20443;SDS011;10381;53.730;10.010;2022-09-09T08:42:54;17.95;;;15.95;;
20443;SDS011;10381;53.730;10.010;2022-09-09T08:47:04;16.88;;;15.18;;
20443;SDS011;10381;53.730;10.010;2022-09-09T08:51:27;18.08;;;16.27;;
20443;SDS011;10381;53.730;10.010;2022-09-09T08:55:37;16.92;;;15.43;;
20443;SDS011;10381;53.730;10.010;2022-09-09T08:59:45;15.80;;;14.40;;
20443;SDS011;10381;53.730;10.010;2022-09-09T09:04:00;16.07;;;14.57;;
20443;SDS011;10381;53.730;10.010;2022-09-09T09:12:18;16.65;;;14.95;;
20443;SDS011;10381;53.730;10.010;2022-09-09T09:20:46;14.73;;;13.40;;
20443;SDS011;10381;53.730;10.010;2022-09-09T09:29:23;14.88;;;13.50;;
20443;SDS011;10381;53.730;10.010;2022-09-09T09:33:31;14.23;;;13.02;;
20443;SDS011;10381;53.730;10.010;2022-09-09T09:37:39;13.75;;;12.65;;
20443;SDS011;10381;53.730;10.010;2022-09-09T09:41:41;16.92;;;14.02;;
20443;SDS011;10381;53.730;10.010;2022-09-09T09:45:44;15.38;;;13.90;;
20443;SDS011;10381;53.730;10.010;2022-09-09T09:49:51;14.43;;;13.13;;
20443;SDS011;10381;53.730;10.010;2022-09-09T09:54:02;13.48;;;12.38;;
20443;SDS011;10381;53.730;10.010;2022-09-09T09:58:06;13.25;;;12.05;;
20443;SDS011;10381;53.730;10.010;2022-09-09T10:06:14;13.32;;;11.98;;
20443;SDS011;10381;53.730;10.010;2022-09-09T10:10:25;14.13;;;13.03;;
20443;SDS011;10381;53.730;10.010;2022-09-09T10:19:16;13.95;;;12.75;;
20443;SDS011;10381;53.730;10.010;2022-09-09T10:24:02;12.82;;;11.73;;
20443;SDS011;10381;53.730;10.010;2022-09-09T10:32:36;12.73;;;11.70;;
20443;SDS011;10381;53.730;10.010;2022-09-09T10:36:42;14.05;;;12.80;;
20443;SDS011;10381;53.730;10.010;2022-09-09T10:40:58;14.90;;;13.48;;
20443;SDS011;10381;53.730;10.010;2022-09-09T10:45:20;15.60;;;14.10;;
20443;SDS011;10381;53.730;10.010;2022-09-09T10:53:55;14.18;;;12.57;;
20443;SDS011;10381;53.730;10.010;2022-09-09T10:58:18;11.20;;;10.20;;
20443;SDS011;10381;53.730;10.010;2022-09-09T11:02:29;13.63;;;11.07;;
20443;SDS011;10381;53.730;10.010;2022-09-09T11:06:32;11.07;;;10.07;;
20443;SDS011;10381;53.730;10.010;2022-09-09T11:10:40;10.00;;;9.00;;
20443;SDS011;10381;53.730;10.010;2022-09-09T11:14:48;10.07;;;9.27;;
20443;SDS011;10381;53.730;10.010;2022-09-09T11:19:09;10.13;;;9.32;;
20443;SDS011;10381;53.730;10.010;2022-09-09T11:23:24;10.40;;;9.48;;
20443;SDS011;10381;53.730;10.010;2022-09-09T11:40:43;12.25;;;10.98;;
20443;SDS011;10381;53.730;10.010;2022-09-09T11:44:44;11.57;;;10.57;;
20443;SDS011;10381;53.730;10.010;2022-09-09T11:48:45;14.98;;;10.82;;
20443;SDS011;10381;53.730;10.010;2022-09-09T11:53:05;12.10;;;10.90;;
20443;SDS011;10381;53.730;10.010;2022-09-09T11:57:24;12.88;;;11.75;;
20443;SDS011;10381;53.730;10.010;2022-09-09T12:01:34;12.52;;;11.32;;
20443;SDS011;10381;53.730;10.010;2022-09-09T12:05:40;10.82;;;9.55;;
20443;SDS011;10381;53.730;10.010;2022-09-09T12:09:48;11.43;;;10.23;;
20443;SDS011;10381;53.730;10.010;2022-09-09T12:13:53;11.98;;;8.82;;
20443;SDS011;10381;53.730;10.010;2022-09-09T12:17:56;9.52;;;8.25;;
20443;SDS011;10381;53.730;10.010;2022-09-09T12:35:02;10.02;;;9.23;;
20443;SDS011;10381;53.730;10.010;2022-09-09T12:39:19;11.32;;;10.32;;
20443;SDS011;10381;53.730;10.010;2022-09-09T12:43:28;11.57;;;10.57;;
20443;SDS011;10381;53.730;10.010;2022-09-09T12:47:39;11.85;;;10.57;;
20443;SDS011;10381;53.730;10.010;2022-09-09T12:51:45;10.77;;;9.85;;
20443;SDS011;10381;53.730;10.010;2022-09-09T12:55:49;11.73;;;10.82;;
20443;SDS011;10381;53.730;10.010;2022-09-09T13:00:03;12.40;;;11.32;;
20443;SDS011;10381;53.730;10.010;2022-09-09T13:04:20;12.90;;;11.80;;
20443;SDS011;10381;53.730;10.010;2022-09-09T13:08:22;12.77;;;11.63;;
20443;SDS011;10381;53.730;10.010;2022-09-09T13:12:22;11.47;;;10.47;;
20443;SDS011;10381;53.730;10.010;2022-09-09T13:16:26;10.57;;;9.73;;
20443;SDS011;10381;53.730;10.010;2022-09-09T13:20:31;10.27;;;9.48;;
20443;SDS011;10381;53.730;10.010;2022-09-09T13:24:32;11.77;;;10.80;;
20443;SDS011;10381;53.730;10.010;2022-09-09T13:28:34;12.02;;;11.02;;
20443;SDS011;10381;53.730;10.010;2022-09-09T13:32:37;14.90;;;12.30;;
20443;SDS011;10381;53.730;10.010;2022-09-09T13:36:37;13.27;;;12.18;;
20443;SDS011;10381;53.730;10.010;2022-09-09T13:40:39;17.75;;;15.82;;
20443;SDS011;10381;53.730;10.010;2022-09-09T13:44:40;455.48;;;421.80;;
20443;SDS011;10381;53.730;10.010;2022-09-09T13:48:41;789.08;;;727.30;;
20443;SDS011;10381;53.730;10.010;2022-09-09T13:52:41;778.00;;;716.60;;
20443;SDS011;10381;53.730;10.010;2022-09-09T13:56:42;743.27;;;683.43;;
20443;SDS011;10381;53.730;10.010;2022-09-09T14:00:43;701.08;;;643.55;;
20443;SDS011;10381;53.730;10.010;2022-09-09T14:04:44;691.38;;;634.13;;
20443;SDS011;10381;53.730;10.010;2022-09-09T14:08:44;691.47;;;634.13;;
20443;SDS011;10381;53.730;10.010;2022-09-09T14:12:47;602.25;;;551.65;;
20443;SDS011;10381;53.730;10.010;2022-09-09T14:16:47;532.10;;;487.98;;
20443;SDS011;10381;53.730;10.010;2022-09-09T14:20:47;488.23;;;447.57;;
20443;SDS011;10381;53.730;10.010;2022-09-09T14:24:48;454.57;;;416.33;;
20443;SDS011;10381;53.730;10.010;2022-09-09T14:28:49;457.27;;;418.10;;
20443;SDS011;10381;53.730;10.010;2022-09-09T14:32:50;445.30;;;407.25;;
20443;SDS011;10381;53.730;10.010;2022-09-09T14:36:50;440.07;;;401.57;;
20443;SDS011;10381;53.730;10.010;2022-09-09T14:40:51;443.90;;;406.08;;
20443;SDS011;10381;53.730;10.010;2022-09-09T14:44:51;428.83;;;391.93;;
20443;SDS011;10381;53.730;10.010;2022-09-09T14:48:52;427.23;;;390.73;;
20443;SDS011;10381;53.730;10.010;2022-09-09T14:52:52;417.13;;;381.00;;
20443;SDS011;10381;53.730;10.010;2022-09-09T14:56:53;429.75;;;392.70;;
20443;SDS011;10381;53.730;10.010;2022-09-09T15:00:53;420.50;;;384.23;;
20443;SDS011;10381;53.730;10.010;2022-09-09T15:04:53;411.37;;;375.27;;
20443;SDS011;10381;53.730;10.010;2022-09-09T15:08:57;426.23;;;389.15;;
20443;SDS011;10381;53.730;10.010;2022-09-09T15:12:57;425.45;;;388.13;;
20443;SDS011;10381;53.730;10.010;2022-09-09T15:16:57;442.53;;;403.43;;
20443;SDS011;10381;53.730;10.010;2022-09-09T15:20:58;449.00;;;408.80;;
20443;SDS011;10381;53.730;10.010;2022-09-09T15:24:59;441.38;;;402.33;;
20443;SDS011;10381;53.730;10.010;2022-09-09T15:29:00;438.37;;;399.20;;
20443;SDS011;10381;53.730;10.010;2022-09-09T15:33:00;436.60;;;398.98;;
20443;SDS011;10381;53.730;10.010;2022-09-09T15:37:00;431.47;;;393.93;;
20443;SDS011;10381;53.730;10.010;2022-09-09T15:41:01;459.70;;;421.23;;
20443;SDS011;10381;53.730;10.010;2022-09-09T15:45:01;462.27;;;425.67;;
20443;SDS011;10381;53.730;10.010;2022-09-09T15:53:09;241.70;;;224.20;;
20443;SDS011;10381;53.730;10.010;2022-09-09T15:57:11;50.10;;;45.28;;
20443;SDS011;10381;53.730;10.010;2022-09-09T16:01:12;23.60;;;21.67;;
20443;SDS011;10381;53.730;10.010;2022-09-09T16:05:12;23.10;;;20.90;;
20443;SDS011;10381;53.730;10.010;2022-09-09T16:09:13;18.40;;;16.80;;
20443;SDS011;10381;53.730;10.010;2022-09-09T16:13:13;17.47;;;15.77;;
20443;SDS011;10381;53.730;10.010;2022-09-09T16:17:13;19.10;;;17.33;;
20443;SDS011;10381;53.730;10.010;2022-09-09T16:21:17;25.10;;;22.77;;
20443;SDS011;10381;53.730;10.010;2022-09-09T16:25:19;56.95;;;51.97;;
20443;SDS011;10381;53.730;10.010;2022-09-09T16:29:21;84.47;;;77.72;;
20443;SDS011;10381;53.730;10.010;2022-09-09T16:33:22;69.10;;;63.38;;
20443;SDS011;10381;53.730;10.010;2022-09-09T16:37:23;62.47;;;57.23;;
20443;SDS011;10381;53.730;10.010;2022-09-09T16:41:23;54.87;;;50.13;;
20443;SDS011;10381;53.730;10.010;2022-09-09T16:45:24;45.05;;;40.85;;
20443;SDS011;10381;53.730;10.010;2022-09-09T16:49:25;40.47;;;36.60;;
20443;SDS011;10381;53.730;10.010;2022-09-09T16:53:25;35.42;;;32.35;;
20443;SDS011;10381;53.730;10.010;2022-09-09T16:57:25;33.73;;;31.00;;
20443;SDS011;10381;53.730;10.010;2022-09-09T17:01:27;35.07;;;32.03;;
20443;SDS011;10381;53.730;10.010;2022-09-09T17:05:29;33.03;;;30.30;;
20443;SDS011;10381;53.730;10.010;2022-09-09T17:09:29;38.42;;;35.13;;
20443;SDS011;10381;53.730;10.010;2022-09-09T17:13:31;44.50;;;40.72;;
20443;SDS011;10381;53.730;10.010;2022-09-09T17:17:31;50.47;;;46.08;;
20443;SDS011;10381;53.730;10.010;2022-09-09T17:21:32;53.50;;;48.95;;
20443;SDS011;10381;53.730;10.010;2022-09-09T17:25:32;55.27;;;50.20;;
20443;SDS011;10381;53.730;10.010;2022-09-09T17:29:33;64.50;;;58.40;;
20443;SDS011;10381;53.730;10.010;2022-09-09T17:33:36;61.33;;;56.15;;
20443;SDS011;10381;53.730;10.010;2022-09-09T17:37:38;68.07;;;62.47;;
20443;SDS011;10381;53.730;10.010;2022-09-09T17:41:39;71.93;;;65.72;;
20443;SDS011;10381;53.730;10.010;2022-09-09T17:45:40;76.07;;;69.32;;
20443;SDS011;10381;53.730;10.010;2022-09-09T17:49:40;70.40;;;64.30;;
20443;SDS011;10381;53.730;10.010;2022-09-09T17:53:42;64.97;;;59.33;;
20443;SDS011;10381;53.730;10.010;2022-09-09T17:57:43;65.95;;;59.72;;
20443;SDS011;10381;53.730;10.010;2022-09-09T18:01:45;70.55;;;64.10;;
20443;SDS011;10381;53.730;10.010;2022-09-09T18:05:46;78.13;;;71.07;;
20443;SDS011;10381;53.730;10.010;2022-09-09T18:09:47;86.50;;;78.90;;
20443;SDS011;10381;53.730;10.010;2022-09-09T18:13:55;86.93;;;79.40;;
20443;SDS011;10381;53.730;10.010;2022-09-09T18:17:58;91.95;;;84.05;;
20443;SDS011;10381;53.730;10.010;2022-09-09T18:22:04;93.35;;;85.15;;
20443;SDS011;10381;53.730;10.010;2022-09-09T18:26:13;79.40;;;72.18;;
20443;SDS011;10381;53.730;10.010;2022-09-09T18:30:14;86.50;;;78.72;;
20443;SDS011;10381;53.730;10.010;2022-09-09T18:34:15;88.60;;;80.45;;
20443;SDS011;10381;53.730;10.010;2022-09-09T18:38:17;86.85;;;79.13;;
20443;SDS011;10381;53.730;10.010;2022-09-09T18:42:18;86.72;;;79.22;;
20443;SDS011;10381;53.730;10.010;2022-09-09T18:46:18;92.38;;;84.40;;
20443;SDS011;10381;53.730;10.010;2022-09-09T18:50:19;89.03;;;80.50;;
20443;SDS011;10381;53.730;10.010;2022-09-09T18:54:23;89.38;;;81.60;;
20443;SDS011;10381;53.730;10.010;2022-09-09T18:58:25;83.95;;;75.95;;
20443;SDS011;10381;53.730;10.010;2022-09-09T19:02:25;83.70;;;76.18;;
20443;SDS011;10381;53.730;10.010;2022-09-09T19:06:27;77.88;;;70.05;;
20443;SDS011;10381;53.730;10.010;2022-09-09T19:10:29;80.50;;;73.07;;
20443;SDS011;10381;53.730;10.010;2022-09-09T19:14:30;75.22;;;68.45;;
20443;SDS011;10381;53.730;10.010;2022-09-09T19:18:31;71.78;;;65.03;;
20443;SDS011;10381;53.730;10.010;2022-09-09T19:22:31;69.63;;;62.80;;
20443;SDS011;10381;53.730;10.010;2022-09-09T19:26:36;66.88;;;60.90;;
20443;SDS011;10381;53.730;10.010;2022-09-09T19:30:42;62.88;;;56.72;;
20443;SDS011;10381;53.730;10.010;2022-09-09T19:34:46;65.75;;;59.70;;
20443;SDS011;10381;53.730;10.010;2022-09-09T19:38:47;62.27;;;56.67;;
20443;SDS011;10381;53.730;10.010;2022-09-09T19:42:47;65.65;;;59.60;;
20443;SDS011;10381;53.730;10.010;2022-09-09T19:46:48;66.57;;;58.58;;
20443;SDS011;10381;53.730;10.010;2022-09-09T19:50:49;65.03;;;58.92;;
20443;SDS011;10381;53.730;10.010;2022-09-09T19:54:49;62.92;;;56.80;;
20443;SDS011;10381;53.730;10.010;2022-09-09T19:58:50;63.07;;;57.23;;
20443;SDS011;10381;53.730;10.010;2022-09-09T20:02:50;61.85;;;55.67;;
20443;SDS011;10381;53.730;10.010;2022-09-09T20:06:51;61.03;;;55.27;;
20443;SDS011;10381;53.730;10.010;2022-09-09T20:10:52;58.47;;;52.70;;
20443;SDS011;10381;53.730;10.010;2022-09-09T20:14:53;58.75;;;53.40;;
20443;SDS011;10381;53.730;10.010;2022-09-09T20:18:54;57.92;;;52.78;;
20443;SDS011;10381;53.730;10.010;2022-09-09T20:22:56;54.17;;;49.08;;
20443;SDS011;10381;53.730;10.010;2022-09-09T20:26:56;56.43;;;50.80;;
20443;SDS011;10381;53.730;10.010;2022-09-09T20:31:02;55.37;;;50.07;;
20443;SDS011;10381;53.730;10.010;2022-09-09T20:35:10;52.10;;;47.05;;
20443;SDS011;10381;53.730;10.010;2022-09-09T20:39:11;54.73;;;49.63;;
20443;SDS011;10381;53.730;10.010;2022-09-09T20:43:16;51.78;;;47.10;;
20443;SDS011;10381;53.730;10.010;2022-09-09T20:47:16;51.25;;;46.60;;
20443;SDS011;10381;53.730;10.010;2022-09-09T20:51:18;50.13;;;45.53;;
20443;SDS011;10381;53.730;10.010;2022-09-09T20:55:22;54.33;;;49.42;;
20443;SDS011;10381;53.730;10.010;2022-09-09T20:59:23;49.63;;;45.13;;
20443;SDS011;10381;53.730;10.010;2022-09-09T21:03:28;50.95;;;45.72;;
20443;SDS011;10381;53.730;10.010;2022-09-09T21:07:31;52.92;;;48.05;;
20443;SDS011;10381;53.730;10.010;2022-09-09T21:11:32;55.17;;;50.07;;
20443;SDS011;10381;53.730;10.010;2022-09-09T21:15:33;51.67;;;46.72;;
20443;SDS011;10381;53.730;10.010;2022-09-09T21:19:35;52.10;;;47.10;;
20443;SDS011;10381;53.730;10.010;2022-09-09T21:23:35;55.03;;;50.07;;
20443;SDS011;10381;53.730;10.010;2022-09-09T21:27:35;56.20;;;51.00;;
20443;SDS011;10381;53.730;10.010;2022-09-09T21:31:36;61.58;;;55.63;;
20443;SDS011;10381;53.730;10.010;2022-09-09T21:35:37;62.17;;;56.47;;
20443;SDS011;10381;53.730;10.010;2022-09-09T21:39:39;56.42;;;51.25;;
20443;SDS011;10381;53.730;10.010;2022-09-09T21:43:42;55.97;;;50.65;;
20443;SDS011;10381;53.730;10.010;2022-09-09T21:47:44;49.58;;;44.70;;
20443;SDS011;10381;53.730;10.010;2022-09-09T21:51:45;48.28;;;43.65;;
20443;SDS011;10381;53.730;10.010;2022-09-09T21:55:47;56.00;;;50.50;;
20443;SDS011;10381;53.730;10.010;2022-09-09T21:59:47;56.08;;;50.90;;
20443;SDS011;10381;53.730;10.010;2022-09-09T22:03:48;54.03;;;48.80;;
20443;SDS011;10381;53.730;10.010;2022-09-09T22:07:48;53.90;;;48.47;;
20443;SDS011;10381;53.730;10.010;2022-09-09T22:11:48;50.03;;;45.57;;
20443;SDS011;10381;53.730;10.010;2022-09-09T22:15:51;54.35;;;49.25;;
20443;SDS011;10381;53.730;10.010;2022-09-09T22:19:52;48.55;;;44.17;;
20443;SDS011;10381;53.730;10.010;2022-09-09T22:23:57;47.70;;;43.00;;
20443;SDS011;10381;53.730;10.010;2022-09-09T22:28:02;44.03;;;40.00;;
20443;SDS011;10381;53.730;10.010;2022-09-09T22:32:03;50.97;;;46.53;;
20443;SDS011;10381;53.730;10.010;2022-09-09T22:36:04;46.38;;;41.83;;
20443;SDS011;10381;53.730;10.010;2022-09-09T22:40:05;45.13;;;40.90;;
20443;SDS011;10381;53.730;10.010;2022-09-09T22:44:08;45.95;;;40.97;;
20443;SDS011;10381;53.730;10.010;2022-09-09T22:48:09;46.97;;;40.45;;
20443;SDS011;10381;53.730;10.010;2022-09-09T22:52:10;45.15;;;41.05;;
20443;SDS011;10381;53.730;10.010;2022-09-09T22:56:12;45.87;;;40.73;;
20443;SDS011;10381;53.730;10.010;2022-09-09T23:00:18;48.63;;;44.03;;
20443;SDS011;10381;53.730;10.010;2022-09-09T23:04:18;46.50;;;42.13;;
20443;SDS011;10381;53.730;10.010;2022-09-09T23:08:22;45.60;;;40.85;;
20443;SDS011;10381;53.730;10.010;2022-09-09T23:12:24;45.70;;;41.47;;
20443;SDS011;10381;53.730;10.010;2022-09-09T23:16:26;45.67;;;41.30;;
20443;SDS011;10381;53.730;10.010;2022-09-09T23:20:28;48.53;;;43.85;;
20443;SDS011;10381;53.730;10.010;2022-09-09T23:24:28;48.30;;;43.65;;
20443;SDS011;10381;53.730;10.010;2022-09-09T23:28:30;48.73;;;44.07;;
20443;SDS011;10381;53.730;10.010;2022-09-09T23:32:31;53.00;;;47.80;;
20443;SDS011;10381;53.730;10.010;2022-09-09T23:36:32;52.85;;;47.80;;
20443;SDS011;10381;53.730;10.010;2022-09-09T23:40:33;53.78;;;48.97;;
20443;SDS011;10381;53.730;10.010;2022-09-09T23:44:34;52.03;;;47.42;;
20443;SDS011;10381;53.730;10.010;2022-09-09T23:48:37;51.53;;;46.75;;
20443;SDS011;10381;53.730;10.010;2022-09-09T23:52:37;58.10;;;52.90;;
20443;SDS011;10381;53.730;10.010;2022-09-09T23:56:42;57.42;;;52.22;;
